sensor_id;sensor_type;location;lat;lon;timestamp;P1;durP1;ratioP1;P2;durP2;ratioP2
23015;SDS011;11674;52.428;13.584;2022-09-13T00:02:20;4.68;;;2.80;;
23015;SDS011;11674;52.428;13.584;2022-09-13T00:04:52;3.72;;;2.85;;
23015;SDS011;11674;52.428;13.584;2022-09-13T00:07:25;11.30;;;7.30;;
23015;SDS011;11674;52.428;13.584;2022-09-13T00:09:56;7.95;;;3.10;;
23015;SDS011;11674;52.428;13.584;2022-09-13T00:12:29;5.88;;;3.40;;
23015;SDS011;11674;52.428;13.584;2022-09-13T00:15:00;5.85;;;3.20;;
23015;SDS011;11674;52.428;13.584;2022-09-13T00:17:33;5.57;;;4.00;;
23015;SDS011;11674;52.428;13.584;2022-09-13T00:20:05;4.20;;;3.60;;
23015;SDS011;11674;52.428;13.584;2022-09-13T00:22:36;3.33;;;2.80;;
23015;SDS011;11674;52.428;13.584;2022-09-13T00:25:08;4.03;;;3.08;;
23015;SDS011;11674;52.428;13.584;2022-09-13T00:27:40;3.58;;;2.67;;
23015;SDS011;11674;52.428;13.584;2022-09-13T00:30:13;9.75;;;5.38;;
23015;SDS011;11674;52.428;13.584;2022-09-13T00:32:45;6.68;;;4.35;;
23015;SDS011;11674;52.428;13.584;2022-09-13T00:35:17;3.80;;;3.05;;
23015;SDS011;11674;52.428;13.584;2022-09-13T00:37:49;7.00;;;3.10;;
23015;SDS011;11674;52.428;13.584;2022-09-13T00:40:20;4.13;;;3.40;;
23015;SDS011;11674;52.428;13.584;2022-09-13T00:42:53;5.35;;;2.40;;
23015;SDS011;11674;52.428;13.584;2022-09-13T00:45:25;2.92;;;2.60;;
23015;SDS011;11674;52.428;13.584;2022-09-13T00:47:58;4.10;;;3.13;;
23015;SDS011;11674;52.428;13.584;2022-09-13T00:50:36;3.80;;;2.80;;
23015;SDS011;11674;52.428;13.584;2022-09-13T00:53:23;3.72;;;2.80;;
23015;SDS011;11674;52.428;13.584;2022-09-13T00:59:09;4.03;;;3.40;;
23015;SDS011;11674;52.428;13.584;2022-09-13T01:01:46;5.53;;;3.97;;
23015;SDS011;11674;52.428;13.584;2022-09-13T01:04:24;3.60;;;2.72;;
23015;SDS011;11674;52.428;13.584;2022-09-13T01:06:58;4.70;;;3.40;;
23015;SDS011;11674;52.428;13.584;2022-09-13T01:09:34;8.32;;;3.78;;
23015;SDS011;11674;52.428;13.584;2022-09-13T01:12:12;4.82;;;3.20;;
23015;SDS011;11674;52.428;13.584;2022-09-13T01:14:54;3.97;;;2.58;;
23015;SDS011;11674;52.428;13.584;2022-09-13T01:17:30;3.95;;;3.10;;
23015;SDS011;11674;52.428;13.584;2022-09-13T01:20:04;4.88;;;3.40;;
23015;SDS011;11674;52.428;13.584;2022-09-13T01:31:33;5.10;;;3.92;;
23015;SDS011;11674;52.428;13.584;2022-09-13T01:40:03;5.97;;;3.30;;
23015;SDS011;11674;52.428;13.584;2022-09-13T01:42:47;8.68;;;5.53;;
23015;SDS011;11674;52.428;13.584;2022-09-13T01:48:24;4.38;;;3.05;;
23015;SDS011;11674;52.428;13.584;2022-09-13T01:51:06;3.90;;;3.28;;
23015;SDS011;11674;52.428;13.584;2022-09-13T01:56:38;2.92;;;2.60;;
23015;SDS011;11674;52.428;13.584;2022-09-13T01:59:21;5.38;;;3.10;;
23015;SDS011;11674;52.428;13.584;2022-09-13T02:02:22;5.93;;;3.10;;
23015;SDS011;11674;52.428;13.584;2022-09-13T02:08:23;4.75;;;2.92;;
23015;SDS011;11674;52.428;13.584;2022-09-13T02:11:10;3.80;;;2.97;;
23015;SDS011;11674;52.428;13.584;2022-09-13T02:13:48;4.47;;;3.10;;
23015;SDS011;11674;52.428;13.584;2022-09-13T02:16:31;3.78;;;2.70;;
23015;SDS011;11674;52.428;13.584;2022-09-13T02:19:07;5.15;;;3.60;;
23015;SDS011;11674;52.428;13.584;2022-09-13T02:21:37;3.85;;;3.00;;
23015;SDS011;11674;52.428;13.584;2022-09-13T02:24:17;4.18;;;3.00;;
23015;SDS011;11674;52.428;13.584;2022-09-13T02:26:53;6.60;;;3.10;;
23015;SDS011;11674;52.428;13.584;2022-09-13T02:29:29;3.47;;;3.15;;
23015;SDS011;11674;52.428;13.584;2022-09-13T02:32:05;3.72;;;2.85;;
23015;SDS011;11674;52.428;13.584;2022-09-13T02:34:39;3.15;;;2.88;;
23015;SDS011;11674;52.428;13.584;2022-09-13T02:37:16;3.58;;;2.88;;
23015;SDS011;11674;52.428;13.584;2022-09-13T02:39:52;4.07;;;3.20;;
23015;SDS011;11674;52.428;13.584;2022-09-13T02:44:58;5.82;;;3.40;;
23015;SDS011;11674;52.428;13.584;2022-09-13T02:55:51;3.88;;;3.40;;
23015;SDS011;11674;52.428;13.584;2022-09-13T03:01:35;6.88;;;3.20;;
23015;SDS011;11674;52.428;13.584;2022-09-13T03:04:01;6.30;;;3.10;;
23015;SDS011;11674;52.428;13.584;2022-09-13T03:06:33;5.22;;;2.90;;
23015;SDS011;11674;52.428;13.584;2022-09-13T03:09:05;3.35;;;2.92;;
23015;SDS011;11674;52.428;13.584;2022-09-13T03:11:50;3.85;;;2.95;;
23015;SDS011;11674;52.428;13.584;2022-09-13T03:23:33;8.25;;;3.00;;
23015;SDS011;11674;52.428;13.584;2022-09-13T03:26:22;3.33;;;3.03;;
23015;SDS011;11674;52.428;13.584;2022-09-13T03:29:08;6.65;;;3.22;;
23015;SDS011;11674;52.428;13.584;2022-09-13T03:35:19;5.55;;;3.60;;
23015;SDS011;11674;52.428;13.584;2022-09-13T03:40:46;4.20;;;3.40;;
23015;SDS011;11674;52.428;13.584;2022-09-13T03:43:21;4.10;;;3.42;;
23015;SDS011;11674;52.428;13.584;2022-09-13T03:45:58;3.72;;;3.28;;
23015;SDS011;11674;52.428;13.584;2022-09-13T03:48:33;3.83;;;3.40;;
23015;SDS011;11674;52.428;13.584;2022-09-13T03:51:07;3.97;;;3.25;;
23015;SDS011;11674;52.428;13.584;2022-09-13T03:53:34;6.95;;;3.50;;
23015;SDS011;11674;52.428;13.584;2022-09-13T03:56:13;6.13;;;3.40;;
23015;SDS011;11674;52.428;13.584;2022-09-13T03:58:46;4.53;;;3.22;;
23015;SDS011;11674;52.428;13.584;2022-09-13T04:01:20;4.22;;;3.45;;
23015;SDS011;11674;52.428;13.584;2022-09-13T04:03:47;3.50;;;3.20;;
23015;SDS011;11674;52.428;13.584;2022-09-13T04:06:19;5.10;;;3.13;;
23015;SDS011;11674;52.428;13.584;2022-09-13T04:08:51;7.25;;;3.90;;
23015;SDS011;11674;52.428;13.584;2022-09-13T04:11:23;6.00;;;3.60;;
23015;SDS011;11674;52.428;13.584;2022-09-13T04:13:48;4.05;;;3.63;;
23015;SDS011;11674;52.428;13.584;2022-09-13T04:16:20;4.93;;;3.80;;
23015;SDS011;11674;52.428;13.584;2022-09-13T04:18:52;4.30;;;3.85;;
23015;SDS011;11674;52.428;13.584;2022-09-13T04:21:24;5.88;;;3.90;;
23015;SDS011;11674;52.428;13.584;2022-09-13T04:23:49;4.50;;;3.77;;
23015;SDS011;11674;52.428;13.584;2022-09-13T04:26:21;4.13;;;3.50;;
23015;SDS011;11674;52.428;13.584;2022-09-13T04:28:53;4.93;;;3.40;;
23015;SDS011;11674;52.428;13.584;2022-09-13T04:31:25;6.10;;;3.67;;
23015;SDS011;11674;52.428;13.584;2022-09-13T04:33:50;4.65;;;3.92;;
23015;SDS011;11674;52.428;13.584;2022-09-13T04:36:25;5.88;;;3.50;;
23015;SDS011;11674;52.428;13.584;2022-09-13T04:38:57;4.07;;;3.50;;
23015;SDS011;11674;52.428;13.584;2022-09-13T04:41:29;5.18;;;3.60;;
23015;SDS011;11674;52.428;13.584;2022-09-13T04:43:54;4.35;;;3.60;;
23015;SDS011;11674;52.428;13.584;2022-09-13T04:46:26;7.10;;;4.10;;
23015;SDS011;11674;52.428;13.584;2022-09-13T04:48:59;5.82;;;3.80;;
23015;SDS011;11674;52.428;13.584;2022-09-13T04:51:24;6.40;;;4.18;;
23015;SDS011;11674;52.428;13.584;2022-09-13T04:53:56;5.53;;;3.92;;
23015;SDS011;11674;52.428;13.584;2022-09-13T04:56:28;4.28;;;3.55;;
23015;SDS011;11674;52.428;13.584;2022-09-13T04:59:00;4.15;;;3.53;;
23015;SDS011;11674;52.428;13.584;2022-09-13T05:01:25;8.30;;;4.32;;
23015;SDS011;11674;52.428;13.584;2022-09-13T05:03:57;6.65;;;4.20;;
23015;SDS011;11674;52.428;13.584;2022-09-13T05:06:29;7.53;;;4.28;;
23015;SDS011;11674;52.428;13.584;2022-09-13T05:09:01;4.72;;;4.07;;
23015;SDS011;11674;52.428;13.584;2022-09-13T05:11:34;4.97;;;3.45;;
23015;SDS011;11674;52.428;13.584;2022-09-13T05:14:08;4.75;;;4.03;;
23015;SDS011;11674;52.428;13.584;2022-09-13T05:16:34;9.65;;;3.72;;
23015;SDS011;11674;52.428;13.584;2022-09-13T05:19:06;4.68;;;3.80;;
23015;SDS011;11674;52.428;13.584;2022-09-13T05:21:38;4.00;;;3.53;;
23015;SDS011;11674;52.428;13.584;2022-09-13T05:24:10;7.47;;;3.33;;
23015;SDS011;11674;52.428;13.584;2022-09-13T05:26:35;6.82;;;4.00;;
23015;SDS011;11674;52.428;13.584;2022-09-13T05:29:07;6.60;;;3.70;;
23015;SDS011;11674;52.428;13.584;2022-09-13T05:31:39;9.45;;;3.92;;
23015;SDS011;11674;52.428;13.584;2022-09-13T05:34:13;6.15;;;3.70;;
23015;SDS011;11674;52.428;13.584;2022-09-13T05:36:40;5.55;;;4.18;;
23015;SDS011;11674;52.428;13.584;2022-09-13T05:39:13;4.20;;;3.80;;
23015;SDS011;11674;52.428;13.584;2022-09-13T05:41:46;7.82;;;4.10;;
23015;SDS011;11674;52.428;13.584;2022-09-13T05:44:19;4.90;;;3.95;;
23015;SDS011;11674;52.428;13.584;2022-09-13T05:46:51;6.45;;;3.50;;
23015;SDS011;11674;52.428;13.584;2022-09-13T05:49:23;4.82;;;3.60;;
23015;SDS011;11674;52.428;13.584;2022-09-13T05:51:55;5.18;;;3.35;;
23015;SDS011;11674;52.428;13.584;2022-09-13T05:54:20;5.80;;;3.85;;
23015;SDS011;11674;52.428;13.584;2022-09-13T05:56:52;12.70;;;3.65;;
23015;SDS011;11674;52.428;13.584;2022-09-13T05:59:24;7.47;;;5.45;;
23015;SDS011;11674;52.428;13.584;2022-09-13T06:01:49;6.07;;;4.40;;
23015;SDS011;11674;52.428;13.584;2022-09-13T06:04:21;7.43;;;4.28;;
23015;SDS011;11674;52.428;13.584;2022-09-13T06:06:53;9.13;;;4.35;;
23015;SDS011;11674;52.428;13.584;2022-09-13T06:09:25;8.27;;;4.07;;
23015;SDS011;11674;52.428;13.584;2022-09-13T06:11:50;8.50;;;4.40;;
23015;SDS011;11674;52.428;13.584;2022-09-13T06:14:22;5.85;;;3.80;;
23015;SDS011;11674;52.428;13.584;2022-09-13T06:16:54;6.38;;;4.30;;
23015;SDS011;11674;52.428;13.584;2022-09-13T06:19:26;4.68;;;4.18;;
23015;SDS011;11674;52.428;13.584;2022-09-13T06:21:58;5.38;;;4.72;;
23015;SDS011;11674;52.428;13.584;2022-09-13T06:24:30;6.05;;;4.95;;
23015;SDS011;11674;52.428;13.584;2022-09-13T06:27:02;6.03;;;4.88;;
23015;SDS011;11674;52.428;13.584;2022-09-13T06:29:34;6.43;;;5.10;;
23015;SDS011;11674;52.428;13.584;2022-09-13T06:32:06;9.45;;;5.60;;
23015;SDS011;11674;52.428;13.584;2022-09-13T06:34:38;10.32;;;5.28;;
23015;SDS011;11674;52.428;13.584;2022-09-13T06:37:10;6.40;;;5.18;;
23015;SDS011;11674;52.428;13.584;2022-09-13T06:39:45;9.40;;;5.07;;
23015;SDS011;11674;52.428;13.584;2022-09-13T06:42:17;6.72;;;5.38;;
23015;SDS011;11674;52.428;13.584;2022-09-13T06:44:42;8.55;;;6.18;;
23015;SDS011;11674;52.428;13.584;2022-09-13T06:47:15;8.07;;;6.35;;
23015;SDS011;11674;52.428;13.584;2022-09-13T06:49:47;9.40;;;6.40;;
23015;SDS011;11674;52.428;13.584;2022-09-13T06:52:12;8.55;;;6.47;;
23015;SDS011;11674;52.428;13.584;2022-09-13T06:54:44;10.15;;;5.88;;
23015;SDS011;11674;52.428;13.584;2022-09-13T06:57:16;10.90;;;7.03;;
23015;SDS011;11674;52.428;13.584;2022-09-13T06:59:48;11.27;;;6.40;;
23015;SDS011;11674;52.428;13.584;2022-09-13T07:02:13;11.25;;;7.25;;
23015;SDS011;11674;52.428;13.584;2022-09-13T07:04:45;13.98;;;6.93;;
23015;SDS011;11674;52.428;13.584;2022-09-13T07:07:17;9.23;;;6.50;;
23015;SDS011;11674;52.428;13.584;2022-09-13T07:09:49;9.00;;;6.65;;
23015;SDS011;11674;52.428;13.584;2022-09-13T07:12:14;8.15;;;6.75;;
23015;SDS011;11674;52.428;13.584;2022-09-13T07:14:46;12.57;;;7.00;;
23015;SDS011;11674;52.428;13.584;2022-09-13T07:17:18;9.90;;;6.75;;
23015;SDS011;11674;52.428;13.584;2022-09-13T07:19:50;14.05;;;6.53;;
23015;SDS011;11674;52.428;13.584;2022-09-13T07:22:22;8.88;;;7.18;;
23015;SDS011;11674;52.428;13.584;2022-09-13T07:24:54;12.13;;;6.93;;
23015;SDS011;11674;52.428;13.584;2022-09-13T07:27:19;11.07;;;7.07;;
23015;SDS011;11674;52.428;13.584;2022-09-13T07:29:51;9.25;;;6.53;;
23015;SDS011;11674;52.428;13.584;2022-09-13T07:32:23;9.52;;;6.68;;
23015;SDS011;11674;52.428;13.584;2022-09-13T07:34:55;10.32;;;6.93;;
23015;SDS011;11674;52.428;13.584;2022-09-13T07:37:20;9.70;;;6.37;;
23015;SDS011;11674;52.428;13.584;2022-09-13T07:39:52;19.98;;;6.55;;
23015;SDS011;11674;52.428;13.584;2022-09-13T07:42:24;8.65;;;6.43;;
23015;SDS011;11674;52.428;13.584;2022-09-13T07:44:56;16.90;;;6.70;;
23015;SDS011;11674;52.428;13.584;2022-09-13T07:47:21;8.93;;;6.00;;
23015;SDS011;11674;52.428;13.584;2022-09-13T07:49:53;8.85;;;6.43;;
23015;SDS011;11674;52.428;13.584;2022-09-13T07:52:27;9.23;;;6.90;;
23015;SDS011;11674;52.428;13.584;2022-09-13T07:54:59;9.25;;;6.53;;
23015;SDS011;11674;52.428;13.584;2022-09-13T07:57:31;9.85;;;6.47;;
23015;SDS011;11674;52.428;13.584;2022-09-13T08:00:03;9.27;;;6.80;;
23015;SDS011;11674;52.428;13.584;2022-09-13T08:02:36;9.65;;;6.82;;
23015;SDS011;11674;52.428;13.584;2022-09-13T08:05:02;10.98;;;6.80;;
23015;SDS011;11674;52.428;13.584;2022-09-13T08:07:34;7.32;;;6.05;;
23015;SDS011;11674;52.428;13.584;2022-09-13T08:10:06;12.18;;;6.72;;
23015;SDS011;11674;52.428;13.584;2022-09-13T08:12:31;11.85;;;6.57;;
23015;SDS011;11674;52.428;13.584;2022-09-13T08:15:03;12.88;;;7.30;;
23015;SDS011;11674;52.428;13.584;2022-09-13T08:17:28;10.63;;;6.20;;
23015;SDS011;11674;52.428;13.584;2022-09-13T08:20:00;11.32;;;6.40;;
23015;SDS011;11674;52.428;13.584;2022-09-13T08:22:32;10.10;;;6.32;;
23015;SDS011;11674;52.428;13.584;2022-09-13T08:24:57;9.33;;;6.27;;
23015;SDS011;11674;52.428;13.584;2022-09-13T08:27:29;9.02;;;6.50;;
23015;SDS011;11674;52.428;13.584;2022-09-13T08:30:01;10.23;;;6.60;;
23015;SDS011;11674;52.428;13.584;2022-09-13T08:32:33;9.00;;;6.40;;
23015;SDS011;11674;52.428;13.584;2022-09-13T08:34:58;7.83;;;5.97;;
23015;SDS011;11674;52.428;13.584;2022-09-13T08:37:30;7.95;;;6.10;;
23015;SDS011;11674;52.428;13.584;2022-09-13T08:40:02;9.23;;;6.28;;
23015;SDS011;11674;52.428;13.584;2022-09-13T08:42:40;12.10;;;6.07;;
23015;SDS011;11674;52.428;13.584;2022-09-13T08:45:21;7.72;;;5.75;;
23015;SDS011;11674;52.428;13.584;2022-09-13T08:47:47;8.18;;;6.13;;
23015;SDS011;11674;52.428;13.584;2022-09-13T08:50:26;8.63;;;5.90;;
23015;SDS011;11674;52.428;13.584;2022-09-13T08:55:59;13.85;;;6.60;;
23015;SDS011;11674;52.428;13.584;2022-09-13T09:07:02;7.82;;;6.20;;
23015;SDS011;11674;52.428;13.584;2022-09-13T09:09:35;8.35;;;5.90;;
23015;SDS011;11674;52.428;13.584;2022-09-13T09:15:45;8.23;;;6.20;;
23015;SDS011;11674;52.428;13.584;2022-09-13T09:18:30;8.00;;;5.90;;
23015;SDS011;11674;52.428;13.584;2022-09-13T09:21:10;10.10;;;5.60;;
23015;SDS011;11674;52.428;13.584;2022-09-13T09:23:52;10.13;;;5.40;;
23015;SDS011;11674;52.428;13.584;2022-09-13T09:26:28;8.85;;;5.80;;
23015;SDS011;11674;52.428;13.584;2022-09-13T09:29:07;7.07;;;5.28;;
23015;SDS011;11674;52.428;13.584;2022-09-13T09:37:24;12.10;;;6.03;;
23015;SDS011;11674;52.428;13.584;2022-09-13T09:39:57;8.30;;;5.95;;
23015;SDS011;11674;52.428;13.584;2022-09-13T09:42:26;8.27;;;6.03;;
23015;SDS011;11674;52.428;13.584;2022-09-13T09:45:02;14.93;;;5.72;;
23015;SDS011;11674;52.428;13.584;2022-09-13T09:47:48;8.98;;;5.95;;
23015;SDS011;11674;52.428;13.584;2022-09-13T09:53:02;9.13;;;5.85;;
23015;SDS011;11674;52.428;13.584;2022-09-13T09:55:39;8.30;;;5.22;;
23015;SDS011;11674;52.428;13.584;2022-09-13T09:58:34;11.02;;;5.57;;
23015;SDS011;11674;52.428;13.584;2022-09-13T10:01:13;7.40;;;5.88;;
23015;SDS011;11674;52.428;13.584;2022-09-13T10:06:24;7.68;;;5.80;;
23015;SDS011;11674;52.428;13.584;2022-09-13T10:11:47;11.88;;;5.25;;
23015;SDS011;11674;52.428;13.584;2022-09-13T10:14:26;8.13;;;5.20;;
23015;SDS011;11674;52.428;13.584;2022-09-13T10:23:11;10.23;;;5.07;;
23015;SDS011;11674;52.428;13.584;2022-09-13T10:26:03;6.57;;;4.68;;
23015;SDS011;11674;52.428;13.584;2022-09-13T10:28:51;10.43;;;5.47;;
23015;SDS011;11674;52.428;13.584;2022-09-13T10:31:29;9.20;;;5.50;;
23015;SDS011;11674;52.428;13.584;2022-09-13T10:34:21;9.60;;;5.57;;
23015;SDS011;11674;52.428;13.584;2022-09-13T10:42:32;8.93;;;5.27;;
23015;SDS011;11674;52.428;13.584;2022-09-13T10:45:04;7.25;;;5.20;;
23015;SDS011;11674;52.428;13.584;2022-09-13T10:50:20;7.88;;;5.03;;
23015;SDS011;11674;52.428;13.584;2022-09-13T10:52:58;7.57;;;5.55;;
23015;SDS011;11674;52.428;13.584;2022-09-13T10:55:35;8.32;;;5.70;;
23015;SDS011;11674;52.428;13.584;2022-09-13T11:00:45;7.00;;;5.22;;
23015;SDS011;11674;52.428;13.584;2022-09-13T11:14:37;12.75;;;7.88;;
23015;SDS011;11674;52.428;13.584;2022-09-13T11:17:33;10.35;;;6.72;;
23015;SDS011;11674;52.428;13.584;2022-09-13T11:23:43;10.65;;;5.78;;
23015;SDS011;11674;52.428;13.584;2022-09-13T11:29:23;6.60;;;5.13;;
23015;SDS011;11674;52.428;13.584;2022-09-13T11:46:04;10.77;;;7.47;;
23015;SDS011;11674;52.428;13.584;2022-09-13T11:49:51;12.20;;;7.55;;
23015;SDS011;11674;52.428;13.584;2022-09-13T11:58:01;10.82;;;7.50;;
23015;SDS011;11674;52.428;13.584;2022-09-13T12:00:41;10.85;;;7.90;;
23015;SDS011;11674;52.428;13.584;2022-09-13T12:06:11;11.68;;;7.45;;
23015;SDS011;11674;52.428;13.584;2022-09-13T12:08:50;13.98;;;8.25;;
23015;SDS011;11674;52.428;13.584;2022-09-13T12:11:28;13.45;;;9.50;;
23015;SDS011;11674;52.428;13.584;2022-09-13T12:14:11;10.55;;;7.90;;
23015;SDS011;11674;52.428;13.584;2022-09-13T12:16:50;13.15;;;8.00;;
23015;SDS011;11674;52.428;13.584;2022-09-13T12:19:39;13.30;;;7.50;;
23015;SDS011;11674;52.428;13.584;2022-09-13T12:22:15;10.55;;;7.32;;
23015;SDS011;11674;52.428;13.584;2022-09-13T12:24:50;10.70;;;7.68;;
23015;SDS011;11674;52.428;13.584;2022-09-13T12:27:28;9.77;;;6.97;;
23015;SDS011;11674;52.428;13.584;2022-09-13T12:30:24;9.13;;;6.85;;
23015;SDS011;11674;52.428;13.584;2022-09-13T12:33:01;9.73;;;7.10;;
23015;SDS011;11674;52.428;13.584;2022-09-13T12:36:00;10.02;;;6.63;;
23015;SDS011;11674;52.428;13.584;2022-09-13T12:41:45;11.05;;;6.25;;
23015;SDS011;11674;52.428;13.584;2022-09-13T12:44:49;11.98;;;6.53;;
23015;SDS011;11674;52.428;13.584;2022-09-13T12:53:30;12.05;;;6.20;;
23015;SDS011;11674;52.428;13.584;2022-09-13T12:56:09;9.10;;;7.03;;
23015;SDS011;11674;52.428;13.584;2022-09-13T13:01:44;9.88;;;7.05;;
23015;SDS011;11674;52.428;13.584;2022-09-13T13:04:14;13.35;;;7.10;;
23015;SDS011;11674;52.428;13.584;2022-09-13T13:12:29;8.95;;;6.28;;
23015;SDS011;11674;52.428;13.584;2022-09-13T13:15:52;12.05;;;6.63;;
23015;SDS011;11674;52.428;13.584;2022-09-13T13:17:56;9.15;;;6.45;;
23015;SDS011;11674;52.428;13.584;2022-09-13T13:36:58;14.25;;;7.10;;
23015;SDS011;11674;52.428;13.584;2022-09-13T13:39:33;10.23;;;7.07;;
23015;SDS011;11674;52.428;13.584;2022-09-13T13:42:29;11.60;;;7.43;;
23015;SDS011;11674;52.428;13.584;2022-09-13T13:45:16;10.18;;;7.10;;
23015;SDS011;11674;52.428;13.584;2022-09-13T13:47:55;9.55;;;7.18;;
23015;SDS011;11674;52.428;13.584;2022-09-13T13:53:43;10.95;;;7.10;;
23015;SDS011;11674;52.428;13.584;2022-09-13T13:56:16;12.35;;;8.40;;
23015;SDS011;11674;52.428;13.584;2022-09-13T13:58:57;11.63;;;8.48;;
23015;SDS011;11674;52.428;13.584;2022-09-13T14:01:35;15.57;;;8.52;;
23015;SDS011;11674;52.428;13.584;2022-09-13T14:10:23;12.38;;;8.23;;
23015;SDS011;11674;52.428;13.584;2022-09-13T14:13:48;10.98;;;7.70;;
23015;SDS011;11674;52.428;13.584;2022-09-13T14:21:46;24.70;;;17.33;;
23015;SDS011;11674;52.428;13.584;2022-09-13T14:24:36;11.57;;;8.63;;
23015;SDS011;11674;52.428;13.584;2022-09-13T14:27:12;9.85;;;7.97;;
23015;SDS011;11674;52.428;13.584;2022-09-13T14:29:47;12.80;;;10.05;;
23015;SDS011;11674;52.428;13.584;2022-09-13T14:32:22;18.45;;;10.30;;
23015;SDS011;11674;52.428;13.584;2022-09-13T14:35:00;15.23;;;9.85;;
23015;SDS011;11674;52.428;13.584;2022-09-13T14:37:36;9.63;;;7.65;;
23015;SDS011;11674;52.428;13.584;2022-09-13T14:42:48;11.45;;;8.07;;
23015;SDS011;11674;52.428;13.584;2022-09-13T14:50:32;10.30;;;7.10;;
23015;SDS011;11674;52.428;13.584;2022-09-13T14:53:11;10.27;;;7.47;;
23015;SDS011;11674;52.428;13.584;2022-09-13T14:55:49;10.50;;;7.03;;
23015;SDS011;11674;52.428;13.584;2022-09-13T14:58:25;10.15;;;7.20;;
23015;SDS011;11674;52.428;13.584;2022-09-13T15:01:04;9.77;;;7.00;;
23015;SDS011;11674;52.428;13.584;2022-09-13T15:03:40;11.10;;;7.47;;
23015;SDS011;11674;52.428;13.584;2022-09-13T15:06:17;9.43;;;7.10;;
23015;SDS011;11674;52.428;13.584;2022-09-13T15:08:51;9.63;;;6.97;;
23015;SDS011;11674;52.428;13.584;2022-09-13T15:11:33;8.93;;;6.65;;
23015;SDS011;11674;52.428;13.584;2022-09-13T15:19:47;10.05;;;6.45;;
23015;SDS011;11674;52.428;13.584;2022-09-13T15:22:21;7.97;;;6.13;;
23015;SDS011;11674;52.428;13.584;2022-09-13T15:24:56;8.25;;;5.80;;
23015;SDS011;11674;52.428;13.584;2022-09-13T15:29:58;7.28;;;5.28;;
23015;SDS011;11674;52.428;13.584;2022-09-13T15:32:29;8.65;;;5.32;;
23015;SDS011;11674;52.428;13.584;2022-09-13T15:38:00;10.55;;;6.93;;
23015;SDS011;11674;52.428;13.584;2022-09-13T15:41:11;8.55;;;5.10;;
23015;SDS011;11674;52.428;13.584;2022-09-13T15:43:48;8.73;;;5.45;;
23015;SDS011;11674;52.428;13.584;2022-09-13T15:46:20;6.57;;;4.70;;
23015;SDS011;11674;52.428;13.584;2022-09-13T15:48:53;9.00;;;5.10;;
23015;SDS011;11674;52.428;13.584;2022-09-13T15:51:27;6.53;;;4.68;;
23015;SDS011;11674;52.428;13.584;2022-09-13T15:53:53;5.38;;;4.53;;
23015;SDS011;11674;52.428;13.584;2022-09-13T15:56:33;7.90;;;4.93;;
23015;SDS011;11674;52.428;13.584;2022-09-13T15:59:05;7.38;;;4.60;;
23015;SDS011;11674;52.428;13.584;2022-09-13T16:01:37;8.88;;;3.97;;
23015;SDS011;11674;52.428;13.584;2022-09-13T16:04:02;5.77;;;3.90;;
23015;SDS011;11674;52.428;13.584;2022-09-13T16:06:34;5.85;;;4.10;;
23015;SDS011;11674;52.428;13.584;2022-09-13T16:09:16;8.57;;;3.58;;
23015;SDS011;11674;52.428;13.584;2022-09-13T16:11:50;5.47;;;3.45;;
23015;SDS011;11674;52.428;13.584;2022-09-13T16:14:16;4.85;;;3.47;;
23015;SDS011;11674;52.428;13.584;2022-09-13T16:16:49;5.63;;;3.50;;
23015;SDS011;11674;52.428;13.584;2022-09-13T16:19:22;5.70;;;3.80;;
23015;SDS011;11674;52.428;13.584;2022-09-13T16:21:54;4.80;;;3.65;;
23015;SDS011;11674;52.428;13.584;2022-09-13T16:24:26;4.95;;;3.22;;
23015;SDS011;11674;52.428;13.584;2022-09-13T16:26:51;5.45;;;3.47;;
23015;SDS011;11674;52.428;13.584;2022-09-13T16:29:23;7.28;;;3.53;;
23015;SDS011;11674;52.428;13.584;2022-09-13T16:31:55;4.55;;;3.28;;
23015;SDS011;11674;52.428;13.584;2022-09-13T16:34:27;5.53;;;3.60;;
23015;SDS011;11674;52.428;13.584;2022-09-13T16:36:59;6.90;;;4.20;;
23015;SDS011;11674;52.428;13.584;2022-09-13T16:39:31;4.57;;;3.30;;
23015;SDS011;11674;52.428;13.584;2022-09-13T16:42:03;5.90;;;4.32;;
23015;SDS011;11674;52.428;13.584;2022-09-13T16:44:35;4.05;;;3.28;;
23015;SDS011;11674;52.428;13.584;2022-09-13T16:47:07;4.78;;;3.55;;
23015;SDS011;11674;52.428;13.584;2022-09-13T16:49:49;4.00;;;3.30;;
23015;SDS011;11674;52.428;13.584;2022-09-13T16:52:27;4.57;;;3.03;;
23015;SDS011;11674;52.428;13.584;2022-09-13T16:54:59;5.22;;;3.40;;
23015;SDS011;11674;52.428;13.584;2022-09-13T16:57:31;4.75;;;3.28;;
23015;SDS011;11674;52.428;13.584;2022-09-13T17:00:04;5.95;;;2.80;;
23015;SDS011;11674;52.428;13.584;2022-09-13T17:02:37;7.00;;;3.38;;
23015;SDS011;11674;52.428;13.584;2022-09-13T17:05:09;5.35;;;2.90;;
23015;SDS011;11674;52.428;13.584;2022-09-13T17:07:41;4.40;;;3.55;;
23015;SDS011;11674;52.428;13.584;2022-09-13T17:10:06;4.43;;;3.10;;
23015;SDS011;11674;52.428;13.584;2022-09-13T17:12:39;5.10;;;3.72;;
23015;SDS011;11674;52.428;13.584;2022-09-13T17:15:05;4.97;;;3.42;;
23015;SDS011;11674;52.428;13.584;2022-09-13T17:17:37;4.25;;;3.30;;
23015;SDS011;11674;52.428;13.584;2022-09-13T17:20:09;4.68;;;3.40;;
23015;SDS011;11674;52.428;13.584;2022-09-13T17:22:42;5.38;;;3.30;;
23015;SDS011;11674;52.428;13.584;2022-09-13T17:25:14;5.32;;;3.50;;
23015;SDS011;11674;52.428;13.584;2022-09-13T17:27:46;5.22;;;3.78;;
23015;SDS011;11674;52.428;13.584;2022-09-13T17:30:18;5.75;;;3.65;;
23015;SDS011;11674;52.428;13.584;2022-09-13T17:32:50;5.85;;;3.72;;
23015;SDS011;11674;52.428;13.584;2022-09-13T17:35:22;7.68;;;3.60;;
23015;SDS011;11674;52.428;13.584;2022-09-13T17:37:54;8.32;;;4.22;;
23015;SDS011;11674;52.428;13.584;2022-09-13T17:40:33;6.28;;;4.55;;
23015;SDS011;11674;52.428;13.584;2022-09-13T17:43:05;6.10;;;4.60;;
23015;SDS011;11674;52.428;13.584;2022-09-13T17:45:37;7.28;;;5.15;;
23015;SDS011;11674;52.428;13.584;2022-09-13T17:48:09;8.00;;;4.82;;
23015;SDS011;11674;52.428;13.584;2022-09-13T17:50:41;5.03;;;3.42;;
23015;SDS011;11674;52.428;13.584;2022-09-13T17:53:13;8.32;;;6.05;;
23015;SDS011;11674;52.428;13.584;2022-09-13T17:55:46;4.20;;;3.35;;
23015;SDS011;11674;52.428;13.584;2022-09-13T17:58:18;8.27;;;4.80;;
23015;SDS011;11674;52.428;13.584;2022-09-13T18:00:50;7.88;;;4.30;;
23015;SDS011;11674;52.428;13.584;2022-09-13T18:03:25;7.18;;;3.60;;
23015;SDS011;11674;52.428;13.584;2022-09-13T18:05:58;4.60;;;3.67;;
23015;SDS011;11674;52.428;13.584;2022-09-13T18:08:31;6.13;;;3.78;;
23015;SDS011;11674;52.428;13.584;2022-09-13T18:11:05;6.22;;;3.70;;
23015;SDS011;11674;52.428;13.584;2022-09-13T18:13:41;5.22;;;3.60;;
23015;SDS011;11674;52.428;13.584;2022-09-13T18:16:17;6.15;;;3.42;;
23015;SDS011;11674;52.428;13.584;2022-09-13T18:18:51;40.92;;;20.73;;
23015;SDS011;11674;52.428;13.584;2022-09-13T18:21:23;6.40;;;4.15;;
23015;SDS011;11674;52.428;13.584;2022-09-13T18:23:57;6.25;;;4.45;;
23015;SDS011;11674;52.428;13.584;2022-09-13T18:26:24;4.78;;;4.10;;
23015;SDS011;11674;52.428;13.584;2022-09-13T18:28:58;8.43;;;3.30;;
23015;SDS011;11674;52.428;13.584;2022-09-13T18:31:32;8.45;;;3.60;;
23015;SDS011;11674;52.428;13.584;2022-09-13T18:34:09;4.38;;;2.97;;
23015;SDS011;11674;52.428;13.584;2022-09-13T18:36:42;2.65;;;2.45;;
23015;SDS011;11674;52.428;13.584;2022-09-13T18:39:18;4.10;;;2.70;;
23015;SDS011;11674;52.428;13.584;2022-09-13T18:41:51;4.57;;;2.80;;
23015;SDS011;11674;52.428;13.584;2022-09-13T18:44:23;6.82;;;2.85;;
23015;SDS011;11674;52.428;13.584;2022-09-13T18:46:50;6.50;;;3.30;;